Allagash, Maine
Current Conditions -  °F | °C
As of 11:53 PM on Wednesday 22 Oct 2014 (Local Time) from KFVE Reporting Station
Broken Clouds Broken Clouds  
Wind Chill: 30°   Ceiling: 7000
Heat Index: 39°   Visibility: 10mi
Dew Point: 32°   Wind: 17mph
Humidity: 76%   Direction: 60°ENE
Pressure: 30.29"   Gusts: 23mph
Location:  47.1951°N, 69.2728°W
Report Text: KFVE 230353Z AUTO 06015G20KT 10SM BKN070 04/00 A3029 RMK AO2 SLP265 T00390000
Loading
Personal Weather Stations






























Interactive Weather Map New forecast layout! Learn more

10-Day Weather Forecast

Advertisements
Track Severe Weather on mobile